createdAt,value
2022-09-21T00:00:18.827Z,3.50
2022-09-21T00:01:24.886Z,4.10
2022-09-21T00:02:27.127Z,3.38
2022-09-21T00:03:29.618Z,3.33
2022-09-21T00:04:31.717Z,4.18
2022-09-21T00:05:34.756Z,3.47
2022-09-21T00:06:37.362Z,3.22
2022-09-21T00:07:39.465Z,3.08
2022-09-21T00:08:42.723Z,3.00
2022-09-21T00:09:44.939Z,3.10
2022-09-21T00:10:50.209Z,3.50
2022-09-21T00:11:56.365Z,3.20
2022-09-21T00:13:02.942Z,3.33
2022-09-21T00:14:10.388Z,3.10
2022-09-21T00:15:12.616Z,2.85
2022-09-21T00:16:16.733Z,3.25
2022-09-21T00:17:18.864Z,3.33
2022-09-21T00:18:21.441Z,3.05
2022-09-21T00:19:23.635Z,2.65
2022-09-21T00:20:27.835Z,3.35
2022-09-21T00:21:30.458Z,2.78
2022-09-21T00:22:33.433Z,3.13
2022-09-21T00:23:36.640Z,3.20
2022-09-21T00:24:38.976Z,2.75
2022-09-21T00:25:41.140Z,3.05
2022-09-21T00:26:43.235Z,3.65
2022-09-21T00:27:47.786Z,2.63
2022-09-21T00:29:08.230Z,3.17
2022-09-21T00:30:11.478Z,2.90
2022-09-21T00:31:15.846Z,3.00
2022-09-21T00:32:18.001Z,3.10
2022-09-21T00:33:20.087Z,3.47
2022-09-21T00:34:22.215Z,2.95
2022-09-21T00:35:24.337Z,3.25
2022-09-21T00:36:28.213Z,3.10
2022-09-21T00:37:30.856Z,2.97
2022-09-21T00:38:33.912Z,2.70
2022-09-21T00:39:36.015Z,3.47
2022-09-21T00:40:38.122Z,2.63
2022-09-21T00:41:40.438Z,2.97
2022-09-21T00:42:42.635Z,3.45
2022-09-21T00:44:09.157Z,3.25
2022-09-21T00:45:21.136Z,2.70
2022-09-21T00:46:30.097Z,3.22
2022-09-21T00:47:35.342Z,2.75
2022-09-21T00:48:37.571Z,3.40
2022-09-21T00:49:42.992Z,3.45
2022-09-21T00:50:53.853Z,2.88
2022-09-21T00:53:00.838Z,2.42
2022-09-21T00:54:09.627Z,2.83
2022-09-21T00:55:16.040Z,2.10
2022-09-21T00:56:18.141Z,2.28
2022-09-21T00:57:23.684Z,2.72
2022-09-21T00:58:30.478Z,2.53
2022-09-21T00:59:36.713Z,2.75
2022-09-21T01:00:40.350Z,2.60
2022-09-21T01:01:43.047Z,3.25
2022-09-21T01:02:46.032Z,2.92
2022-09-21T01:03:50.801Z,2.58
2022-09-21T01:04:55.016Z,2.72
2022-09-21T01:05:57.213Z,2.95
2022-09-21T01:07:05.602Z,2.92
2022-09-21T01:08:12.467Z,2.83
2022-09-21T01:09:16.015Z,2.50
2022-09-21T01:10:19.925Z,2.55
2022-09-21T01:11:55.075Z,3.13
2022-09-21T01:13:30.190Z,2.55
2022-09-21T01:14:55.189Z,2.55
2022-09-21T01:16:20.037Z,2.45
2022-09-21T01:17:51.224Z,2.83
2022-09-21T01:20:39.726Z,2.55
2022-09-21T01:21:52.872Z,2.50
2022-09-21T01:23:14.834Z,2.13
2022-09-21T01:24:24.473Z,2.42
2022-09-21T01:25:35.633Z,2.97
2022-09-21T01:26:50.606Z,3.28
2022-09-21T01:28:02.983Z,2.50
2022-09-21T01:29:29.649Z,2.25
2022-09-21T01:30:35.227Z,2.20
2022-09-21T01:31:49.763Z,2.42
2022-09-21T01:33:03.136Z,2.40
2022-09-21T01:34:12.389Z,2.70
2022-09-21T01:35:23.075Z,2.55
2022-09-21T01:36:30.890Z,2.47
2022-09-21T01:37:38.680Z,2.40
2022-09-21T01:38:53.263Z,2.40
2022-09-21T01:40:01.048Z,2.67
2022-09-21T01:41:07.088Z,3.10
2022-09-21T01:42:11.666Z,3.45
2022-09-21T01:43:20.499Z,2.47
2022-09-21T01:44:28.572Z,2.45
2022-09-21T01:45:44.410Z,2.50
2022-09-21T01:46:48.326Z,2.65
2022-09-21T01:47:52.102Z,2.30
2022-09-21T01:49:05.848Z,2.42
2022-09-21T01:50:11.843Z,2.40
2022-09-21T01:51:18.029Z,2.58
2022-09-21T01:52:31.909Z,2.10
2022-09-21T01:53:42.501Z,3.00
2022-09-21T01:54:54.430Z,2.30
2022-09-21T01:56:18.165Z,2.60
2022-09-21T01:57:23.588Z,2.38
2022-09-21T01:58:42.358Z,2.35
2022-09-21T01:59:57.022Z,2.50
2022-09-21T02:00:59.469Z,2.30
2022-09-21T02:02:08.989Z,2.80
2022-09-21T02:03:19.140Z,2.30
2022-09-21T02:04:21.496Z,1.98
2022-09-21T02:05:26.301Z,2.42
2022-09-21T02:06:30.094Z,2.65
2022-09-21T02:07:36.917Z,2.15
2022-09-21T02:08:39.498Z,2.15
2022-09-21T02:09:41.682Z,2.42
2022-09-21T02:10:49.464Z,2.42
2022-09-21T02:11:51.569Z,2.58
2022-09-21T02:13:01.318Z,2.03
2022-09-21T02:14:03.478Z,2.17
2022-09-21T02:15:06.330Z,2.05
2022-09-21T02:16:12.205Z,2.28
2022-09-21T02:17:20.089Z,2.80
2022-09-21T02:18:55.053Z,2.20
2022-09-21T02:20:19.579Z,2.03
2022-09-21T02:21:31.481Z,2.20
2022-09-21T02:22:42.721Z,2.30
2022-09-21T02:24:03.106Z,2.08
2022-09-21T02:25:15.744Z,1.80
2022-09-21T02:26:27.182Z,2.50
2022-09-21T02:27:55.802Z,1.85
2022-09-21T02:29:43.027Z,2.63
2022-09-21T02:30:53.570Z,1.95
2022-09-21T02:32:05.161Z,2.30
2022-09-21T02:33:17.782Z,2.05
2022-09-21T02:34:38.070Z,2.78
2022-09-21T02:35:55.430Z,2.05
2022-09-21T02:37:10.308Z,2.28
2022-09-21T02:38:17.854Z,2.33
2022-09-21T02:39:32.599Z,2.00
2022-09-21T02:40:44.825Z,2.10
2022-09-21T02:41:56.887Z,2.78
2022-09-21T02:43:33.711Z,2.10
2022-09-21T02:44:42.585Z,2.45
2022-09-21T02:45:51.992Z,1.88
2022-09-21T02:46:59.200Z,1.90
2022-09-21T02:48:07.883Z,2.00
2022-09-21T02:49:17.000Z,1.88
2022-09-21T02:50:26.900Z,2.13
2022-09-21T02:51:32.792Z,1.97
2022-09-21T02:52:39.026Z,1.98
2022-09-21T02:53:43.337Z,1.80
2022-09-21T02:54:50.884Z,1.88
2022-09-21T02:55:56.689Z,2.55
2022-09-21T02:57:00.499Z,1.70
2022-09-21T02:58:06.877Z,3.45
2022-09-21T02:59:10.126Z,2.65
2022-09-21T03:00:12.793Z,2.00
2022-09-21T03:01:16.215Z,2.28
2022-09-21T03:02:18.430Z,2.45
2022-09-21T03:03:23.244Z,2.70
2022-09-21T03:04:27.842Z,2.55
2022-09-21T03:05:30.085Z,2.00
2022-09-21T03:06:32.749Z,2.70
2022-09-21T03:07:34.915Z,2.30
2022-09-21T03:08:37.165Z,2.38
2022-09-21T03:09:39.464Z,2.28
2022-09-21T03:10:41.841Z,2.10
2022-09-21T03:11:43.962Z,2.17
2022-09-21T03:12:46.834Z,2.42
2022-09-21T03:13:48.953Z,2.20
2022-09-21T03:14:51.330Z,2.05
2022-09-21T03:16:03.186Z,2.22
2022-09-21T03:17:05.336Z,2.30
2022-09-21T03:18:09.560Z,2.10
2022-09-21T03:19:14.998Z,2.20
2022-09-21T03:20:17.093Z,2.13
2022-09-21T03:21:19.182Z,1.95
2022-09-21T03:22:22.621Z,1.98
2022-09-21T03:23:25.179Z,2.80
2022-09-21T03:24:45.588Z,1.90
2022-09-21T03:25:47.763Z,1.98
2022-09-21T03:26:50.020Z,2.25
2022-09-21T03:27:54.957Z,1.98
2022-09-21T03:28:57.153Z,1.77
2022-09-21T03:30:02.191Z,1.40
2022-09-21T03:31:06.556Z,2.25
2022-09-21T03:32:08.836Z,2.20
2022-09-21T03:33:12.865Z,2.20
2022-09-21T03:34:15.059Z,2.38
2022-09-21T03:35:18.426Z,2.17
2022-09-21T03:36:20.980Z,2.17
2022-09-21T03:37:23.101Z,2.15
2022-09-21T03:38:26.553Z,2.03
2022-09-21T03:39:29.358Z,2.45
2022-09-21T03:40:32.531Z,1.70
2022-09-21T03:41:34.909Z,2.50
2022-09-21T03:42:37.018Z,2.10
2022-09-21T03:43:39.139Z,1.90
2022-09-21T03:44:41.441Z,2.63
2022-09-21T03:45:44.186Z,2.45
2022-09-21T03:46:46.306Z,1.95
2022-09-21T03:47:48.766Z,2.30
2022-09-21T03:48:50.869Z,1.85
2022-09-21T03:49:54.076Z,1.83
2022-09-21T03:50:57.072Z,1.83
2022-09-21T03:51:59.537Z,2.10
2022-09-21T03:53:01.677Z,2.55
2022-09-21T03:54:04.661Z,1.85
2022-09-21T03:55:08.729Z,2.45
2022-09-21T03:56:10.860Z,2.20
2022-09-21T03:57:12.963Z,2.13
2022-09-21T03:58:15.091Z,1.88
2022-09-21T03:59:17.544Z,2.20
2022-09-21T04:00:20.300Z,2.67
2022-09-21T04:01:22.499Z,2.40
2022-09-21T04:02:24.685Z,1.95
2022-09-21T04:03:26.822Z,2.30
2022-09-21T04:04:28.946Z,2.22
2022-09-21T04:05:31.092Z,2.70
2022-09-21T04:06:33.931Z,2.50
2022-09-21T04:07:36.786Z,1.98
2022-09-21T04:08:39.774Z,1.88
2022-09-21T04:09:41.951Z,1.88
2022-09-21T04:10:44.113Z,2.08
2022-09-21T04:11:48.169Z,1.98
2022-09-21T04:12:50.271Z,1.95
2022-09-21T04:13:56.865Z,2.05
2022-09-21T04:14:59.130Z,2.10
2022-09-21T04:16:01.484Z,1.98
2022-09-21T04:17:04.037Z,1.58
2022-09-21T04:18:06.221Z,2.05
2022-09-21T04:19:08.446Z,1.80
2022-09-21T04:20:10.694Z,1.80
2022-09-21T04:21:12.794Z,1.80
2022-09-21T04:22:15.460Z,1.88
2022-09-21T04:23:17.600Z,2.40
2022-09-21T04:24:19.757Z,1.77
2022-09-21T04:25:21.938Z,1.70
2022-09-21T04:26:30.061Z,2.00
2022-09-21T04:27:32.926Z,2.05
2022-09-21T04:28:35.043Z,1.77
2022-09-21T04:29:37.744Z,2.08
2022-09-21T04:30:40.289Z,2.15
2022-09-21T04:31:43.754Z,2.55
2022-09-21T04:32:46.518Z,2.55
2022-09-21T04:33:50.556Z,1.98
2022-09-21T04:34:52.666Z,1.75
2022-09-21T04:35:56.028Z,2.60
2022-09-21T04:36:59.072Z,2.05
2022-09-21T04:38:01.174Z,1.58
2022-09-21T04:39:04.915Z,1.70
2022-09-21T04:40:08.084Z,1.60
2022-09-21T04:41:10.820Z,2.00
2022-09-21T04:42:13.186Z,2.30
2022-09-21T04:43:17.671Z,2.03
2022-09-21T04:44:22.889Z,1.90
2022-09-21T04:45:25.007Z,2.15
2022-09-21T04:46:27.204Z,2.20
2022-09-21T04:47:30.891Z,2.08
2022-09-21T04:48:33.014Z,1.75
2022-09-21T04:49:35.154Z,1.90
2022-09-21T04:50:38.057Z,1.95
2022-09-21T04:51:43.707Z,2.22
2022-09-21T04:52:45.829Z,2.08
2022-09-21T04:53:47.992Z,2.38
2022-09-21T04:54:51.037Z,1.90
2022-09-21T04:55:53.290Z,2.33
2022-09-21T04:56:55.474Z,2.28
2022-09-21T04:57:57.771Z,2.10
2022-09-21T04:58:59.922Z,1.95
2022-09-21T05:00:05.558Z,1.85
2022-09-21T05:01:07.831Z,2.13
2022-09-21T05:02:10.088Z,2.05
2022-09-21T05:03:12.247Z,2.30
2022-09-21T05:04:14.528Z,2.15
2022-09-21T05:05:16.826Z,2.85
2022-09-21T05:06:18.925Z,1.73
2022-09-21T05:07:21.005Z,1.67
2022-09-21T05:08:43.660Z,1.98
2022-09-21T05:10:03.705Z,2.33
2022-09-21T05:11:07.213Z,1.80
2022-09-21T05:12:09.835Z,1.58
2022-09-21T05:13:11.912Z,1.70
2022-09-21T05:14:14.091Z,1.60
2022-09-21T05:15:16.259Z,1.55
2022-09-21T05:16:19.234Z,1.77
2022-09-21T05:17:22.867Z,2.08
2022-09-21T05:18:25.138Z,1.55
2022-09-21T05:19:27.254Z,1.75
2022-09-21T05:20:29.447Z,1.40
2022-09-21T05:21:31.723Z,1.80
2022-09-21T05:22:33.900Z,1.63
2022-09-21T05:23:36.076Z,2.00
2022-09-21T05:24:38.186Z,1.65
2022-09-21T05:25:40.265Z,1.58
2022-09-21T05:26:42.358Z,1.60
2022-09-21T05:27:44.514Z,2.00
2022-09-21T05:28:47.070Z,2.15
2022-09-21T05:29:49.760Z,2.15
2022-09-21T05:31:17.100Z,1.85
2022-09-21T05:32:48.961Z,1.70
2022-09-21T05:33:58.631Z,2.00
2022-09-21T05:35:19.435Z,1.20
2022-09-21T05:36:53.331Z,1.45
2022-09-21T05:37:59.111Z,1.20
2022-09-21T05:39:01.473Z,1.77
2022-09-21T05:40:05.575Z,1.30
2022-09-21T05:41:08.393Z,1.55
2022-09-21T05:42:10.952Z,1.50
2022-09-21T05:43:13.662Z,1.50
2022-09-21T05:44:16.042Z,1.80
2022-09-21T05:45:21.091Z,1.35
2022-09-21T05:46:41.011Z,1.40
2022-09-21T05:48:16.121Z,1.77
2022-09-21T05:49:29.827Z,1.48
2022-09-21T05:50:57.296Z,1.25
2022-09-21T05:52:37.301Z,1.45
2022-09-21T05:53:58.657Z,1.30
2022-09-21T05:55:34.465Z,1.55
2022-09-21T05:56:43.716Z,1.65
2022-09-21T05:58:17.701Z,1.40
2022-09-21T05:59:36.814Z,1.50
2022-09-21T06:00:52.690Z,1.20
2022-09-21T06:02:16.293Z,1.83
2022-09-21T06:03:29.184Z,1.33
2022-09-21T06:04:31.611Z,1.50
2022-09-21T06:05:33.774Z,1.50
2022-09-21T06:06:35.874Z,1.30
2022-09-21T06:07:38.176Z,1.42
2022-09-21T06:08:40.320Z,1.67
2022-09-21T06:09:43.369Z,1.50
2022-09-21T06:10:45.993Z,1.38
2022-09-21T06:11:48.567Z,1.73
2022-09-21T06:12:50.852Z,1.70
2022-09-21T06:13:52.987Z,1.52
2022-09-21T06:14:56.359Z,1.27
2022-09-21T06:16:03.159Z,1.33
2022-09-21T06:17:05.352Z,1.50
2022-09-21T06:18:08.327Z,1.80
2022-09-21T06:19:13.781Z,1.45
2022-09-21T06:20:15.965Z,1.98
2022-09-21T06:21:18.143Z,1.90
2022-09-21T06:22:20.334Z,1.80
2022-09-21T06:23:22.470Z,1.88
2022-09-21T06:24:25.259Z,1.55
2022-09-21T06:25:27.634Z,1.70
2022-09-21T06:26:29.840Z,1.73
2022-09-21T06:27:31.939Z,2.00
2022-09-21T06:28:34.149Z,1.23
2022-09-21T06:29:36.403Z,1.58
2022-09-21T06:30:40.971Z,1.63
2022-09-21T06:31:43.122Z,1.85
2022-09-21T06:32:45.267Z,1.55
2022-09-21T06:33:48.239Z,1.50
2022-09-21T06:34:50.534Z,2.05
2022-09-21T06:36:00.242Z,1.80
2022-09-21T06:37:03.146Z,1.80
2022-09-21T06:38:07.143Z,1.90
2022-09-21T06:39:09.241Z,2.08
2022-09-21T06:40:11.721Z,1.63
2022-09-21T06:41:18.591Z,2.22
2022-09-21T06:42:23.121Z,1.77
2022-09-21T06:43:25.214Z,2.05
2022-09-21T06:44:27.329Z,1.48
2022-09-21T06:45:31.087Z,2.03
2022-09-21T06:46:33.192Z,1.55
2022-09-21T06:47:35.287Z,1.83
2022-09-21T06:48:37.485Z,1.40
2022-09-21T06:49:42.550Z,1.67
2022-09-21T06:50:44.866Z,1.90
2022-09-21T06:51:48.477Z,1.20
2022-09-21T06:52:50.587Z,1.38
2022-09-21T06:53:57.173Z,1.50
2022-09-21T06:54:59.546Z,1.40
2022-09-21T06:56:07.625Z,1.33
2022-09-21T06:57:09.718Z,1.40
2022-09-21T06:58:11.841Z,1.60
2022-09-21T06:59:14.054Z,1.20
2022-09-21T07:00:16.361Z,1.30
2022-09-21T07:01:19.741Z,1.40
2022-09-21T07:02:22.198Z,1.35
2022-09-21T07:03:25.137Z,1.75
2022-09-21T07:04:29.376Z,1.27
2022-09-21T07:05:33.156Z,1.45
2022-09-21T07:06:35.462Z,1.40
2022-09-21T07:07:37.750Z,1.90
2022-09-21T07:10:06.143Z,2.10
2022-09-21T07:11:09.014Z,2.28
2022-09-21T07:12:11.230Z,2.00
2022-09-21T07:13:13.358Z,2.08
2022-09-21T07:14:15.621Z,1.98
2022-09-21T07:15:19.327Z,2.00
2022-09-21T07:16:21.943Z,1.75
2022-09-21T07:17:24.340Z,2.03
2022-09-21T07:18:26.515Z,2.20
2022-09-21T07:19:28.744Z,2.05
2022-09-21T07:20:31.636Z,1.88
2022-09-21T07:21:33.779Z,2.50
2022-09-21T07:22:36.811Z,2.47
2022-09-21T07:23:39.303Z,1.90
2022-09-21T07:24:41.449Z,2.50
2022-09-21T07:25:45.148Z,2.53
2022-09-21T07:26:47.275Z,2.40
2022-09-21T07:27:49.422Z,1.85
2022-09-21T07:28:51.529Z,2.60
2022-09-21T07:29:53.854Z,1.90
2022-09-21T07:30:56.794Z,1.98
2022-09-21T07:31:58.947Z,2.00
2022-09-21T07:33:01.145Z,2.05
2022-09-21T07:34:03.484Z,1.75
2022-09-21T07:35:06.138Z,2.30
2022-09-21T07:36:11.387Z,2.83
2022-09-21T07:37:15.051Z,2.45
2022-09-21T07:38:17.158Z,2.03
2022-09-21T07:39:19.348Z,2.58
2022-09-21T07:40:25.001Z,1.77
2022-09-21T07:41:27.503Z,2.13
2022-09-21T07:42:30.205Z,2.40
2022-09-21T07:43:33.604Z,2.13
2022-09-21T07:44:35.708Z,2.30
2022-09-21T07:45:38.290Z,1.63
2022-09-21T07:46:45.767Z,2.25
2022-09-21T07:47:50.020Z,2.22
2022-09-21T07:48:54.677Z,3.00
2022-09-21T07:49:56.881Z,1.92
2022-09-21T07:51:06.498Z,2.08
2022-09-21T07:52:11.277Z,2.10
2022-09-21T07:53:16.237Z,2.60
2022-09-21T07:54:18.341Z,2.67
2022-09-21T07:55:20.503Z,2.30
2022-09-21T07:56:23.049Z,2.20
2022-09-21T07:57:43.520Z,2.20
2022-09-21T07:59:04.298Z,2.03
2022-09-21T08:00:06.825Z,2.92
2022-09-21T08:01:13.707Z,2.25
2022-09-21T08:02:16.045Z,2.45
2022-09-21T08:03:18.354Z,2.72
2022-09-21T08:04:20.494Z,2.42
2022-09-21T08:05:22.588Z,2.00
2022-09-21T08:06:27.505Z,2.05
2022-09-21T08:07:29.593Z,2.00
2022-09-21T08:08:31.737Z,2.00
2022-09-21T08:09:34.750Z,2.15
2022-09-21T08:10:37.203Z,2.17
2022-09-21T08:11:43.319Z,1.88
2022-09-21T08:12:45.752Z,2.17
2022-09-21T08:13:48.897Z,2.08
2022-09-21T08:14:51.048Z,2.53
2022-09-21T08:16:00.817Z,1.95
2022-09-21T08:17:03.202Z,2.60
2022-09-21T08:18:07.143Z,2.17
2022-09-21T08:19:09.281Z,2.60
2022-09-21T08:20:11.445Z,1.90
2022-09-21T08:21:14.058Z,2.75
2022-09-21T08:22:16.177Z,2.47
2022-09-21T08:23:18.637Z,1.83
2022-09-21T08:24:21.002Z,2.08
2022-09-21T08:25:23.800Z,2.08
2022-09-21T08:26:26.271Z,2.10
2022-09-21T08:27:28.933Z,2.22
2022-09-21T08:28:31.319Z,1.88
2022-09-21T08:29:33.590Z,1.73
2022-09-21T08:30:35.733Z,2.20
2022-09-21T08:31:37.909Z,2.30
2022-09-21T08:32:51.089Z,2.35
2022-09-21T08:33:55.212Z,2.45
2022-09-21T08:34:57.369Z,1.83
2022-09-21T08:36:01.057Z,2.13
2022-09-21T08:37:03.415Z,2.15
2022-09-21T08:38:06.345Z,2.90
2022-09-21T08:39:09.274Z,1.80
2022-09-21T08:40:12.404Z,2.20
2022-09-21T08:41:21.927Z,2.63
2022-09-21T08:42:42.125Z,2.47
2022-09-21T08:43:50.050Z,2.47
2022-09-21T08:44:57.067Z,2.08
2022-09-21T08:46:00.483Z,2.15
2022-09-21T08:47:19.869Z,2.10
2022-09-21T08:48:35.833Z,2.10
2022-09-21T08:49:42.907Z,2.17
2022-09-21T08:50:53.089Z,2.30
2022-09-21T08:52:03.431Z,2.05
2022-09-21T08:53:15.035Z,2.30
2022-09-21T08:54:22.682Z,1.60
2022-09-21T08:55:24.897Z,2.38
2022-09-21T08:56:47.181Z,2.55
2022-09-21T08:57:49.897Z,1.60
2022-09-21T08:58:52.052Z,1.80
2022-09-21T08:59:54.214Z,1.92
2022-09-21T09:01:14.843Z,2.13
2022-09-21T09:04:11.572Z,2.10
2022-09-21T09:05:38.431Z,1.50
2022-09-21T09:06:52.417Z,1.90
2022-09-21T09:08:18.849Z,1.73
2022-09-21T09:09:33.571Z,1.85
2022-09-21T09:11:06.248Z,1.63
2022-09-21T09:12:25.595Z,1.40
2022-09-21T09:13:42.560Z,1.55
2022-09-21T09:15:02.755Z,1.88
2022-09-21T09:16:10.896Z,2.17
2022-09-21T09:17:34.639Z,1.17
2022-09-21T09:18:52.872Z,1.20
2022-09-21T09:20:06.724Z,1.60
2022-09-21T09:21:29.937Z,1.20
2022-09-21T09:23:04.621Z,1.30
2022-09-21T09:24:10.372Z,1.40
2022-09-21T09:25:20.719Z,1.10
2022-09-21T09:26:34.998Z,1.52
2022-09-21T09:27:41.794Z,0.80
2022-09-21T09:28:53.188Z,0.70
2022-09-21T09:30:14.098Z,1.27
2022-09-21T09:31:24.664Z,1.17
2022-09-21T09:32:51.428Z,1.58
2022-09-21T09:34:10.164Z,1.17
2022-09-21T09:35:33.210Z,1.13
2022-09-21T09:36:57.405Z,1.58
2022-09-21T09:38:26.006Z,1.15
2022-09-21T09:39:30.714Z,1.73
2022-09-21T09:40:42.124Z,1.00
2022-09-21T09:41:53.060Z,1.20
2022-09-21T09:43:09.205Z,1.20
2022-09-21T09:44:50.550Z,1.13
2022-09-21T09:46:06.179Z,0.98
2022-09-21T09:47:27.470Z,1.23
2022-09-21T09:48:39.938Z,2.03
2022-09-21T09:49:57.289Z,1.00
2022-09-21T09:50:59.505Z,1.15
2022-09-21T09:52:02.385Z,1.02
2022-09-21T09:53:13.149Z,1.15
2022-09-21T09:54:17.452Z,1.23
2022-09-21T09:55:25.975Z,1.45
2022-09-21T09:56:28.542Z,0.93
2022-09-21T09:57:33.096Z,1.83
2022-09-21T09:58:59.627Z,0.80
2022-09-21T10:00:12.293Z,1.17
2022-09-21T10:01:41.989Z,0.80
2022-09-21T10:02:51.283Z,0.85
2022-09-21T10:04:08.781Z,0.80
2022-09-21T10:05:24.274Z,0.88
2022-09-21T10:06:33.237Z,1.40
2022-09-21T10:07:38.902Z,0.90
2022-09-21T10:08:44.723Z,1.15
2022-09-21T10:09:46.942Z,0.82
2022-09-21T10:10:49.627Z,1.08
2022-09-21T10:11:54.031Z,0.77
2022-09-21T10:13:04.045Z,1.02
2022-09-21T10:14:20.058Z,0.82
2022-09-21T10:15:24.943Z,0.82
2022-09-21T10:16:27.589Z,0.90
2022-09-21T10:17:29.929Z,0.95
2022-09-21T10:18:52.219Z,1.10
2022-09-21T10:20:02.229Z,1.15
2022-09-21T10:21:09.041Z,0.85
2022-09-21T10:22:18.239Z,1.10
2022-09-21T10:23:20.584Z,0.70
2022-09-21T10:24:30.582Z,0.75
2022-09-21T10:25:34.811Z,0.60
2022-09-21T10:26:49.862Z,0.80
2022-09-21T10:27:52.726Z,1.10
2022-09-21T10:29:22.822Z,0.80
2022-09-21T10:30:31.010Z,1.00
2022-09-21T10:31:33.178Z,0.70
2022-09-21T10:32:36.754Z,0.93
2022-09-21T10:34:06.540Z,0.43
2022-09-21T10:35:10.289Z,1.10
2022-09-21T10:36:51.096Z,1.00
2022-09-21T10:39:11.947Z,0.70
2022-09-21T10:40:20.302Z,1.33
2022-09-21T10:41:23.184Z,1.15
2022-09-21T10:42:25.697Z,0.82
2022-09-21T10:43:45.287Z,0.75
2022-09-21T10:44:50.693Z,0.82
2022-09-21T10:45:55.758Z,0.95
2022-09-21T10:47:02.429Z,1.15
2022-09-21T10:48:11.086Z,1.20
2022-09-21T10:49:28.412Z,0.82
2022-09-21T10:50:40.008Z,1.05
2022-09-21T10:51:45.990Z,0.95
2022-09-21T10:52:49.619Z,1.00
2022-09-21T10:53:54.510Z,1.00
2022-09-21T10:54:57.371Z,0.65
2022-09-21T10:56:15.423Z,0.80
2022-09-21T10:57:22.592Z,0.98
2022-09-21T10:58:25.557Z,0.98
2022-09-21T10:59:32.882Z,0.70
2022-09-21T11:00:42.562Z,0.70
2022-09-21T11:01:50.747Z,0.40
2022-09-21T11:02:54.966Z,0.80
2022-09-21T11:04:08.694Z,1.10
2022-09-21T11:05:22.758Z,0.55
2022-09-21T11:06:41.552Z,0.70
2022-09-21T11:07:49.793Z,0.88
2022-09-21T11:09:10.949Z,0.95
2022-09-21T11:10:40.567Z,0.90
2022-09-21T11:11:53.172Z,0.60
2022-09-21T11:13:17.952Z,0.77
2022-09-21T11:14:27.779Z,1.00
2022-09-21T11:15:47.082Z,0.80
2022-09-21T11:17:07.632Z,1.02
2022-09-21T11:18:26.318Z,0.60
2022-09-21T11:19:36.213Z,0.80
2022-09-21T11:21:34.338Z,1.00
2022-09-21T11:23:00.581Z,0.65
2022-09-21T11:24:20.655Z,0.75
2022-09-21T11:25:32.584Z,0.80
2022-09-21T11:27:58.701Z,0.60
2022-09-21T11:29:09.011Z,1.20
2022-09-21T11:30:15.575Z,0.70
2022-09-21T11:31:37.386Z,0.70
2022-09-21T11:33:15.894Z,0.60
2022-09-21T11:34:35.177Z,0.70
2022-09-21T11:36:08.158Z,0.93
2022-09-21T11:37:52.532Z,1.13
2022-09-21T11:39:06.927Z,1.08
2022-09-21T11:40:30.646Z,0.60
2022-09-21T11:42:00.631Z,0.80
2022-09-21T11:43:15.178Z,0.80
2022-09-21T11:44:33.673Z,1.05
2022-09-21T11:45:48.421Z,0.73
2022-09-21T11:47:10.636Z,0.80
2022-09-21T11:48:47.477Z,0.88
2022-09-21T11:50:29.172Z,0.73
2022-09-21T11:51:47.996Z,0.88
2022-09-21T11:53:14.378Z,0.80
2022-09-21T11:54:26.072Z,0.90
2022-09-21T11:55:57.274Z,0.90
2022-09-21T11:57:19.159Z,1.00
2022-09-21T11:58:39.724Z,0.80
2022-09-21T11:59:42.501Z,0.80
2022-09-21T12:01:01.558Z,1.20
2022-09-21T12:02:35.681Z,1.08
2022-09-21T12:03:50.686Z,1.25
2022-09-21T12:05:01.112Z,0.93
2022-09-21T12:06:29.000Z,1.13
2022-09-21T12:08:02.120Z,1.52
2022-09-21T12:09:17.858Z,1.15
2022-09-21T12:10:39.098Z,1.30
2022-09-21T12:11:48.944Z,1.45
2022-09-21T12:13:08.776Z,1.20
2022-09-21T12:14:28.966Z,1.03
2022-09-21T12:15:44.296Z,1.55
2022-09-21T12:17:11.313Z,0.70
2022-09-21T12:18:29.956Z,0.80
2022-09-21T12:19:56.788Z,0.90
2022-09-21T12:21:19.048Z,0.90
2022-09-21T12:22:28.659Z,0.85
2022-09-21T12:23:36.538Z,0.93
2022-09-21T12:24:50.760Z,0.57
2022-09-21T12:25:57.309Z,0.77
2022-09-21T12:27:09.705Z,1.30
2022-09-21T12:28:15.352Z,0.77
2022-09-21T12:29:27.524Z,0.85
2022-09-21T12:30:32.626Z,0.80
2022-09-21T12:31:47.944Z,0.88
2022-09-21T12:33:09.524Z,0.90
2022-09-21T12:34:18.794Z,1.05
2022-09-21T12:35:34.791Z,1.10
2022-09-21T12:36:52.042Z,1.15
2022-09-21T12:38:07.022Z,0.90
2022-09-21T12:39:29.119Z,0.77
2022-09-21T12:40:39.344Z,0.70
2022-09-21T12:41:41.551Z,0.88
2022-09-21T12:42:56.887Z,1.17
2022-09-21T12:44:06.383Z,0.75
2022-09-21T12:45:30.234Z,1.00
2022-09-21T12:46:40.619Z,0.93
2022-09-21T12:47:53.276Z,0.90
2022-09-21T12:48:56.355Z,0.55
2022-09-21T12:50:16.067Z,0.90
2022-09-21T12:51:29.593Z,0.88
2022-09-21T12:52:33.107Z,0.82
2022-09-21T12:53:38.813Z,1.05
2022-09-21T12:55:06.679Z,0.80
2022-09-21T12:56:30.720Z,1.30
2022-09-21T12:58:13.972Z,1.27
2022-09-21T12:59:35.152Z,1.15
2022-09-21T13:00:57.230Z,0.70
2022-09-21T13:02:17.419Z,0.90
2022-09-21T13:03:30.858Z,0.90
2022-09-21T13:04:53.330Z,0.75
2022-09-21T13:06:23.198Z,0.95
2022-09-21T13:08:04.536Z,1.25
2022-09-21T13:09:12.709Z,1.20
2022-09-21T13:10:39.487Z,1.08
2022-09-21T13:12:15.696Z,0.80
2022-09-21T13:13:29.660Z,0.82
2022-09-21T13:14:36.201Z,0.80
2022-09-21T13:15:44.966Z,1.00
2022-09-21T13:16:57.579Z,1.10
2022-09-21T13:18:05.662Z,1.20
2022-09-21T13:19:13.789Z,0.88
2022-09-21T13:20:19.433Z,1.08
2022-09-21T13:21:29.770Z,0.88
2022-09-21T13:22:37.452Z,1.20
2022-09-21T13:23:42.147Z,0.82
2022-09-21T13:24:47.029Z,0.80
2022-09-21T13:25:59.476Z,1.20
2022-09-21T13:27:06.560Z,1.10
2022-09-21T13:28:09.892Z,1.17
2022-09-21T13:29:21.485Z,0.55
2022-09-21T13:30:38.589Z,0.90
2022-09-21T13:32:08.262Z,0.80
2022-09-21T13:33:19.262Z,1.20
2022-09-21T13:34:28.793Z,0.80
2022-09-21T13:36:02.186Z,0.70
2022-09-21T13:37:19.600Z,1.02
2022-09-21T13:38:34.036Z,1.05
2022-09-21T13:39:36.183Z,1.25
2022-09-21T13:40:53.408Z,1.05
2022-09-21T13:42:04.640Z,1.30
2022-09-21T13:43:19.013Z,1.15
2022-09-21T13:44:41.787Z,0.73
2022-09-21T13:45:51.404Z,1.05
2022-09-21T13:46:54.952Z,0.90
2022-09-21T13:48:00.105Z,0.88
2022-09-21T13:49:33.975Z,1.30
2022-09-21T13:50:42.995Z,0.93
2022-09-21T13:52:07.288Z,1.20
2022-09-21T13:53:23.698Z,0.98
2022-09-21T13:54:37.416Z,1.38
2022-09-21T13:55:49.123Z,0.98
2022-09-21T13:57:18.986Z,1.23
2022-09-21T13:58:26.920Z,0.80
2022-09-21T13:59:29.523Z,1.00
2022-09-21T14:00:39.959Z,0.90
2022-09-21T14:01:47.197Z,0.80
2022-09-21T14:02:54.717Z,1.27
2022-09-21T14:04:06.246Z,1.30
2022-09-21T14:05:25.785Z,0.77
2022-09-21T14:06:35.923Z,1.20
2022-09-21T14:08:58.027Z,0.60
2022-09-21T14:10:06.018Z,1.15
2022-09-21T14:11:17.852Z,0.63
2022-09-21T14:12:25.326Z,0.90
2022-09-21T14:13:36.634Z,0.77
2022-09-21T14:14:43.221Z,1.08
2022-09-21T14:15:45.340Z,1.23
2022-09-21T14:16:51.879Z,1.00
2022-09-21T14:18:17.511Z,0.95
2022-09-21T14:19:19.588Z,0.80
2022-09-21T14:20:37.147Z,0.60
2022-09-21T14:22:04.105Z,1.23
2022-09-21T14:23:15.093Z,0.70
2022-09-21T14:24:32.934Z,0.70
2022-09-21T14:26:02.071Z,0.63
2022-09-21T14:27:23.595Z,1.08
2022-09-21T14:28:43.344Z,1.00
2022-09-21T14:29:50.836Z,0.70
2022-09-21T14:30:55.519Z,0.90
2022-09-21T14:32:00.871Z,0.75
2022-09-21T14:33:12.695Z,0.85
2022-09-21T14:34:23.600Z,0.75
2022-09-21T14:35:33.649Z,1.08
2022-09-21T14:36:45.671Z,0.88
2022-09-21T14:37:52.152Z,0.75
2022-09-21T14:39:00.430Z,0.90
2022-09-21T14:40:16.485Z,1.15
2022-09-21T14:41:22.893Z,1.10
2022-09-21T14:42:28.888Z,0.98
2022-09-21T14:43:36.074Z,0.82
2022-09-21T14:44:40.378Z,0.90
2022-09-21T14:46:20.553Z,1.13
2022-09-21T14:47:22.817Z,0.60
2022-09-21T14:48:43.404Z,1.13
2022-09-21T14:49:52.161Z,0.68
2022-09-21T14:51:02.055Z,0.82
2022-09-21T14:52:27.644Z,0.60
2022-09-21T14:54:01.459Z,0.90
2022-09-21T14:55:18.984Z,0.63
2022-09-21T14:56:22.499Z,0.55
2022-09-21T14:57:43.215Z,0.90
2022-09-21T14:59:07.707Z,0.73
2022-09-21T15:00:23.456Z,0.73
2022-09-21T15:01:31.795Z,1.58
2022-09-21T15:02:37.173Z,0.90
2022-09-21T15:03:53.881Z,0.98
2022-09-21T15:05:11.041Z,1.00
2022-09-21T15:06:56.197Z,1.42
2022-09-21T15:08:39.819Z,0.70
2022-09-21T15:10:03.108Z,0.52
2022-09-21T15:11:28.289Z,0.60
2022-09-21T15:12:54.218Z,0.63
2022-09-21T15:14:05.576Z,0.90
2022-09-21T15:15:29.501Z,1.00
2022-09-21T15:16:40.542Z,0.85
2022-09-21T15:17:59.945Z,0.80
2022-09-21T15:19:13.750Z,0.88
2022-09-21T15:20:25.468Z,0.80
2022-09-21T15:21:32.828Z,0.80
2022-09-21T15:22:43.313Z,0.93
2022-09-21T15:23:45.423Z,0.70
2022-09-21T15:24:59.322Z,0.90
2022-09-21T15:26:06.682Z,0.75
2022-09-21T15:27:17.594Z,0.70
2022-09-21T15:28:19.726Z,0.70
2022-09-21T15:29:28.793Z,0.60
2022-09-21T15:30:33.165Z,0.50
2022-09-21T15:31:38.752Z,0.90
2022-09-21T15:32:43.645Z,0.80
2022-09-21T15:33:48.339Z,0.93
2022-09-21T15:35:06.140Z,0.77